Data for 08/15/2005

Time Sea-Level Adjusted Pressure Absolute Pressure Temperature Relative Humidity Dew Point   
(mb) (inHg) (mb) (inHg) (C) (F) (%) (C) (F)
00:05 1020 30.12 849 25.07 14.9 58.9 32 -1.5 29.4
00:10 1020 30.12 849 25.07 15.1 59.2 33 -1.2 29.9
00:15 1020 30.12 849 25.07 15.1 59.3 34 -0.6 30.9
00:20 1020 30.12 849 25.07 15.1 59.3 35 -0.2 31.6
00:25 1020 30.12 849 25.07 15.2 59.4 35 -0.2 31.7
00:30 1020 30.12 849 25.07 15.5 59.8 35 0.1 32.2
00:35 1020 30.12 849 25.07 15.5 59.9 35 0.2 32.4
00:40 1020 30.12 849 25.07 15.4 59.6 35 0.1 32.2
00:45 1020 30.12 849 25.07 15.5 59.8 35 -0 32
00:50 1020 30.12 849 25.07 15.7 60.2 34 0.1 32.2
00:55 1020 30.12 849 25.07 15.6 60.1 35 0.3 32.5
01:00 1020 30.12 849 25.07 15.4 59.7 35 0.2 32.4
01:05 1020 30.12 849 25.07 15.2 59.3 37 0.5 32.9
01:10 1020 30.12 849 25.07 14.9 58.8 37 0.6 33
01:15 1020 30.12 849 25.07 14.5 58.1 38 0.3 32.6
01:20 1020 30.12 849 25.07 14.3 57.8 38 0.1 32.2
01:25 1020 30.12 849 25.07 14.3 57.7 38 0.2 32.4
01:30 1020 30.12 849 25.07 14.2 57.6 39 0.4 32.7
01:35 1020 30.12 849 25.07 14.2 57.6 39 0.5 32.9
01:40 1020 30.12 849 25.07 14.3 57.7 39 0.6 33
01:45 1020 30.12 849 25.07 14.2 57.6 38 0.3 32.5
01:50 1020 30.12 849 25.07 14.3 57.7 38 0.1 32.1
01:55 1020 30.12 849 25.07 14.2 57.6 38 0.4 32.7
02:00 1020 30.12 849 25.07 14 57.2 39 0.4 32.6
02:05 1020 30.12 849 25.07 13.8 56.9 40 0.6 33.1
02:10 1020 30.12 849 25.07 13.2 55.7 42 0.6 33.1
02:15 1020 30.12 849 25.07 12.8 55.1 45 1.2 34.1
02:20 1020 30.12 849 25.07 12.1 53.8 47 1.2 34.1
02:25 1020 30.12 849 25.07 11.9 53.4 47 1 33.8
02:30 1020 30.12 849 25.07 11.8 53.3 47 0.9 33.6
02:35 1020 30.12 850 25.1 11.8 53.2 49 1.3 34.4
02:40 1020 30.12 850 25.1 11.5 52.6 49 1.1 34
02:45 1020 30.12 850 25.1 11.6 52.8 48 1 33.8
02:50 1020 30.12 850 25.1 11.7 53.1 48 1.1 33.9
02:55 1020 30.12 850 25.1 11.7 53 49 1.4 34.5
03:00 1020 30.12 850 25.1 11.6 52.8 49 1.2 34.1
03:05 1020 30.12 850 25.1 11.5 52.8 49 1.3 34.4
03:10 1020 30.12 850 25.1 11.3 52.3 52 1.8 35.3
03:15 1020 30.12 850 25.1 10.8 51.4 53 1.5 34.7
03:20 1020 30.12 850 25.1 10.7 51.3 52 1.2 34.2
03:25 1021 30.15 850 25.1 11.1 51.9 50 1.1 34
03:30 1021 30.15 850 25.1 11.1 51.9 51 1.3 34.3
03:35 1021 30.15 850 25.1 10.9 51.7 51 1.3 34.3
03:40 1021 30.15 850 25.1 10.9 51.5 51 1.2 34.1
03:45 1021 30.15 850 25.1 11 51.8 50 1.1 34
03:50 1021 30.15 850 25.1 11.1 52 50 1.1 34
03:55 1021 30.15 850 25.1 11.2 52.1 49 1 33.8
04:00 1021 30.15 850 25.1 11.2 52.1 50 1.2 34.2
04:05 1021 30.15 850 25.1 11.1 51.9 50 1.1 34.1
04:10 1021 30.15 850 25.1 11 51.9 50 1 33.9
04:15 1021 30.15 850 25.1 11.1 52 50 1 33.8
04:20 1021 30.15 850 25.1 11.2 52.2 49 0.9 33.7
04:25 1021 30.15 850 25.1 11.2 52.1 51 1.3 34.4
04:30 1020 30.12 850 25.1 10.9 51.7 50 1.1 33.9
04:35 1021 30.15 850 25.1 11.1 51.9 50 1 33.8
04:40 1021 30.15 850 25.1 11.2 52.1 49 0.9 33.6
04:45 1021 30.15 850 25.1 11.3 52.4 49 1 33.8
04:50 1021 30.15 850 25.1 11.2 52.1 50 1.1 34
04:55 1021 30.15 850 25.1 11 51.9 48 0.6 33.1
05:00 1021 30.15 850 25.1 11.4 52.6 49 1 33.8
05:05 1021 30.15 850 25.1 11.1 52 50 1.1 34
05:10 1021 30.15 850 25.1 10.8 51.4 53 1.6 34.8
05:15 1021 30.15 850 25.1 10.6 51.1 53 1.5 34.7
05:20 1021 30.15 850 25.1 10.5 50.8 52 1.1 34
05:25 1021 30.15 850 25.1 10.8 51.5 50 0.9 33.7
05:30 1021 30.15 850 25.1 11.3 52.3 47 0.5 32.9
05:35 1021 30.15 850 25.1 11.3 52.3 48 0.8 33.4
05:40 1021 30.15 850 25.1 11.1 52 50 1.1 33.9
05:45 1021 30.15 850 25.1 10.9 51.6 50 1 33.9
05:50 1021 30.15 850 25.1 10.7 51.3 51 1.1 34
05:55 1021 30.15 850 25.1 10.5 50.9 53 1.4 34.5
06:00 1021 30.15 850 25.1 10.3 50.5 52 0.8 33.5
06:05 1021 30.15 850 25.1 10.6 51.1 51 0.8 33.4
06:10 1021 30.15 850 25.1 10.5 51 52 1.3 34.3
06:15 1021 30.15 850 25.1 10.4 50.7 52 0.9 33.7
06:20 1021 30.15 850 25.1 10.4 50.7 53 1.3 34.3
06:25 1021 30.15 850 25.1 10.2 50.4 54 1.4 34.5
06:30 1021 30.15 850 25.1 10.2 50.3 54 1.2 34.2
06:35 1021 30.15 850 25.1 10.2 50.4 52 0.9 33.7
06:40 1021 30.15 850 25.1 10.5 51 51 1 33.8
06:45 1021 30.15 850 25.1 10.6 51.1 51 1 33.9
06:50 1021 30.15 850 25.1 10.4 50.7 53 1.3 34.3
06:55 1021 30.15 850 25.1 10 50.1 56 1.6 34.9
07:00 1021 30.15 850 25.1 9.8 49.7 54 1.1 33.9
07:05 1021 30.15 850 25.1 9.8 49.7 56 1.5 34.7
07:10 1021 30.15 851 25.13 9.5 49.2 56 1.3 34.4
07:15 1021 30.15 851 25.13 10.1 50.3 51 0.6 33.1
07:20 1021 30.15 851 25.13 10.9 51.6 50 1 33.8
07:25 1021 30.15 851 25.13 11.3 52.3 51 1.7 35
07:30 1021 30.15 851 25.13 11.3 52.4 49 1 33.8
07:35 1021 30.15 851 25.13 11.6 52.9 49 1.3 34.3
07:40 1021 30.15 851 25.13 11.6 53 52 2.1 35.8
07:45 1021 30.15 851 25.13 11.5 52.8 52 2 35.6
07:50 1022 30.18 851 25.13 11.6 52.9 53 2.4 36.2
07:55 1022 30.18 851 25.13 12 53.5 50 2 35.7
08:00 1022 30.18 851 25.13 12.1 53.8 52 2.7 36.8
08:05 1022 30.18 851 25.13 12.3 54.1 51 2.4 36.3
08:10 1022 30.18 851 25.13 12.5 54.5 51 2.6 36.7
08:15 1022 30.18 851 25.13 12.9 55.3 47 2 35.6
08:20 1022 30.18 851 25.13 13.5 56.3 46 2.2 36
08:25 1022 30.18 851 25.13 13.9 57.1 47 2.8 37
08:30 1022 30.18 851 25.13 14.4 58 44 2.5 36.5
08:35 1022 30.18 851 25.13 14.9 58.8 43 2.4 36.2
08:40 1022 30.18 851 25.13 15.4 59.8 43 3.1 37.6
08:45 1022 30.18 851 25.13 15.6 60.1 40 2.2 35.9
08:50 1022 30.18 851 25.13 15.6 60.2 39 1.8 35.3
08:55 1022 30.18 851 25.13 15.8 60.5 40 2.5 36.5
09:00 1022 30.18 851 25.13 16.2 61.2 39 2.4 36.3
09:05 1022 30.18 851 25.13 16.6 61.9 37 2 35.6
09:10 1022 30.18 851 25.13 16.8 62.3 36 1.9 35.5
09:15 1022 30.18 851 25.13 17 62.7 35 1.5 34.8
09:20 1022 30.18 851 25.13 17.7 63.8 33 1.5 34.7
09:25 1022 30.18 851 25.13 18.4 65.1 32 1.7 35.1
09:30 1022 30.18 851 25.13 18.6 65.5 35 3.1 37.6
09:35 1022 30.18 851 25.13 18.5 65.4 37 3.8 38.9
09:40 1022 30.18 851 25.13 18.1 64.5 36 3.1 37.5
09:45 1022 30.18 851 25.13 18 64.4 36 2.9 37.3
09:50 1022 30.18 851 25.13 18.3 64.9 35 2.6 36.7
09:55 1022 30.18 851 25.13 18.4 65.2 34 2.3 36.1
10:00 1022 30.18 851 25.13 19.2 66.5 32 2.3 36.2
10:05 1022 30.18 851 25.13 19.8 67.6 32 2.7 36.9
10:10 1022 30.18 851 25.13 19.3 66.8 33 2.9 37.3
10:15 1022 30.18 851 25.13 19.2 66.6 32 2.5 36.4
10:20 1022 30.18 851 25.13 19.7 67.4 31 2.3 36.1
10:25 1022 30.18 851 25.13 20.3 68.6 31 2.6 36.7
10:30 1022 30.18 851 25.13 21 69.7 30 2.7 36.8
10:35 1022 30.18 851 25.13 20.7 69.3 31 3.2 37.8
10:40 1022 30.18 851 25.13 20.8 69.5 30 2.9 37.2
10:45 1022 30.18 851 25.13 20.4 68.8 30 2.6 36.6
10:50 1022 30.18 851 25.13 20.4 68.8 30 2.3 36.2
10:55 1022 30.18 851 25.13 21 69.7 30 3 37.4
11:00 1022 30.18 851 25.13 20.7 69.2 30 2.8 37.1
11:05 1022 30.18 851 25.13 20.5 68.9 29 2.1 35.8
11:10 1022 30.18 851 25.13 21.4 70.5 29 2.6 36.6
11:15 1022 30.18 851 25.13 21.6 70.8 29 2.8 37
11:20 1022 30.18 851 25.13 21.6 70.9 29 3 37.5
11:25 1022 30.18 851 25.13 22 71.5 28 2.6 36.7
11:30 1022 30.18 851 25.13 22.4 72.2 27 2.6 36.7
11:35 1022 30.18 851 25.13 21.6 70.9 28 2.6 36.8
11:40 1021 30.15 851 25.13 21.1 69.9 30 2.8 37.1
11:45 1021 30.15 851 25.13 21.9 71.5 28 2.7 36.9
11:50 1021 30.15 851 25.13 21.3 70.3 28 2.4 36.4
11:55 1021 30.15 851 25.13 21.9 71.4 27 2.1 35.7
12:00 1021 30.15 850 25.1 22.5 72.4 29 3.9 39
12:05 1021 30.15 850 25.1 23.2 73.8 27 3.3 37.9
12:10 1021 30.15 850 25.1 23.2 73.8 26 3 37.4
12:15 1021 30.15 850 25.1 23.6 74.5 24 2.3 36.2
12:20 1021 30.15 850 25.1 23.4 74.1 25 2.7 36.8
12:25 1021 30.15 850 25.1 23.9 75.1 25 2.9 37.3
12:30 1021 30.15 850 25.1 23.7 74.6 25 2.9 37.3
12:35 1021 30.15 850 25.1 23.4 74 25 2.6 36.6
12:40 1021 30.15 850 25.1 23.6 74.5 25 2.6 36.7
12:45 1021 30.15 850 25.1 24.2 75.6 24 2.5 36.4
12:50 1021 30.15 850 25.1 24.4 76 23 2.1 35.8
12:55 1021 30.15 850 25.1 23.6 74.5 25 2.5 36.5
13:00 1021 30.15 850 25.1 24.2 75.5 23 1.8 35.2
13:05 1021 30.15 850 25.1 24.6 76.2 22 1.6 34.8
13:10 1021 30.15 850 25.1 25 76.9 21 1.2 34.2
13:15 1021 30.15 850 25.1 25.4 77.6 21 1.5 34.6
13:20 1021 30.15 850 25.1 25.6 78.1 20 1.5 34.8
13:25 1021 30.15 850 25.1 25.5 78 21 1.7 35
13:30 1021 30.15 850 25.1 25.6 78 22 2.3 36.1
13:35 1020 30.12 850 25.1 25.3 77.5 22 2 35.6
13:40 1020 30.12 850 25.1 25.7 78.2 20 1.6 34.8
13:45 1020 30.12 850 25.1 26.3 79.3 21 2.3 36.1
13:50 1020 30.12 850 25.1 25.8 78.5 21 1.9 35.4
13:55 1020 30.12 849 25.07 26.1 79 19 1.1 33.9
14:00 1020 30.12 849 25.07 26 78.7 20 1.5 34.7
14:05 1020 30.12 849 25.07 26.3 79.3 20 1.8 35.2
14:10 1020 30.12 849 25.07 25.5 77.9 21 2 35.5
14:15 1020 30.12 849 25.07 26.6 80 19 1.6 34.8
14:20 1020 30.12 849 25.07 27.2 81 19 1.6 34.9
14:25 1020 30.12 849 25.07 27.5 81.4 20 2.6 36.6
14:30 1020 30.12 849 25.07 27.9 82.1 18 1.9 35.5
14:35 1020 30.12 849 25.07 27.8 82.1 19 2.4 36.3
14:40 1020 30.12 849 25.07 27.9 82.1 19 2.1 35.8
14:45 1020 30.12 849 25.07 27.9 82.2 19 2.5 36.6
14:50 1020 30.12 849 25.07 28.2 82.7 18 1.6 35
14:55 1020 30.12 849 25.07 28.5 83.3 18 2 35.7
15:00 1020 30.12 849 25.07 28.2 82.8 19 2.6 36.7
15:05 1020 30.12 849 25.07 28.2 82.7 17 0.8 33.5
15:10 1020 30.12 849 25.07 28.4 83.1 17 1 33.9
15:15 1020 30.12 849 25.07 28.3 82.9 17 1.5 34.7
15:20 1020 30.12 849 25.07 28.6 83.4 16 0.2 32.4
15:25 1020 30.12 849 25.07 28.4 83.1 16 0.6 33
15:30 1020 30.12 849 25.07 28 82.5 17 1.4 34.5
15:35 1020 30.12 849 25.07 28.2 82.7 16 0.5 32.9
15:40 1020 30.12 849 25.07 28.6 83.4 16 0.4 32.7
15:45 1020 30.12 849 25.07 28.8 83.9 15 -0.1 31.8
15:50 1020 30.12 849 25.07 28.7 83.7 15 -0.2 31.6
15:55 1020 30.12 849 25.07 29.1 84.4 15 0.2 32.4
16:00 1019 30.09 849 25.07 29.4 85 15 0.4 32.6
16:05 1019 30.09 849 25.07 29.1 84.3 15 0 32
16:10 1019 30.09 849 25.07 29 84.3 14 -0.5 31.1
16:15 1019 30.09 849 25.07 28.6 83.5 15 -0.6 30.9
16:20 1019 30.09 849 25.07 27.5 81.4 15 -1.1 30.1
16:25 1019 30.09 849 25.07 28.1 82.6 15 -0.4 31.2
16:30 1019 30.09 848 25.04 27.7 81.9 15 -0.8 30.6
16:35 1019 30.09 848 25.04 27.3 81.1 15 -1.6 29.2
16:40 1019 30.09 848 25.04 27.7 81.8 14 -1.7 29
16:45 1019 30.09 848 25.04 27.7 81.9 15 -0.9 30.4
16:50 1019 30.09 848 25.04 27.3 81.2 15 -1.4 29.4
16:55 1019 30.09 848 25.04 28.1 82.6 14 -1.3 29.6
17:00 1019 30.09 848 25.04 28.7 83.6 14 -1.5 29.2
17:05 1019 30.09 848 25.04 28.1 82.5 15 -0.6 31
17:10 1019 30.09 848 25.04 28.6 83.5 14 -1.1 30
17:15 1019 30.09 848 25.04 28.2 82.7 14 -1.3 29.7
17:20 1019 30.09 848 25.04 28.7 83.6 14 -1.3 29.6
17:25 1019 30.09 848 25.04 28.8 83.8 14 -1.4 29.4
17:30 1019 30.09 848 25.04 28.7 83.7 14 -1 30.2
17:35 1019 30.09 848 25.04 28.8 83.9 15 -0.4 31.3
17:40 1019 30.09 848 25.04 28.7 83.6 14 -0.8 30.5
17:45 1019 30.09 848 25.04 28.8 83.8 14 -0.8 30.5
17:50 1019 30.09 848 25.04 28.8 83.8 14 -0.7 30.8
17:55 1019 30.09 848 25.04 28.9 84 15 -0 32
18:00 1019 30.09 848 25.04 28.8 83.8 15 -0.3 31.4
18:05 1019 30.09 848 25.04 28.8 83.8 15 0.1 32.2
18:10 1019 30.09 848 25.04 28.8 83.9 15 -0.2 31.7
18:15 1019 30.09 848 25.04 28.9 84 15 -0.2 31.7
18:20 1019 30.09 848 25.04 28.7 83.7 15 -0.1 31.8
18:25 1019 30.09 848 25.04 28.7 83.7 15 -0.2 31.7
18:30 1019 30.09 848 25.04 28.6 83.4 14 -0.8 30.6
18:35 1019 30.09 848 25.04 28.1 82.6 15 -0.5 31.1
18:40 1019 30.09 848 25.04 28.1 82.6 15 -0.6 30.9
18:45 1019 30.09 848 25.04 27.6 81.7 15 -0.8 30.5
18:50 1019 30.09 848 25.04 27.5 81.6 15 -1.3 29.7
18:55 1019 30.09 848 25.04 27.1 80.7 15 -1.1 30.1
19:00 1019 30.09 848 25.04 26.9 80.4 16 -1.1 29.9
19:05 1019 30.09 848 25.04 26.9 80.3 16 -0.9 30.5
19:10 1019 30.09 848 25.04 26.9 80.4 16 -0.6 30.9
19:15 1019 30.09 848 25.04 26.8 80.2 17 0.2 32.3
19:20 1019 30.09 848 25.04 26.7 80.1 16 -0.9 30.4
19:25 1019 30.09 848 25.04 26.5 79.8 18 0.3 32.6
19:30 1019 30.09 848 25.04 26.4 79.5 18 0.1 32.1
19:35 1019 30.09 848 25.04 26.4 79.4 17 -0.1 31.9
19:40 1019 30.09 848 25.04 26.2 79.2 18 0.2 32.4
19:45 1019 30.09 848 25.04 26.1 78.9 19 0.7 33.3
19:50 1019 30.09 848 25.04 26 78.9 19 0.5 33
19:55 1019 30.09 848 25.04 26 78.7 19 0.6 33.2
20:00 1019 30.09 848 25.04 25.9 78.6 24 3.9 39
20:05 1019 30.09 848 25.04 25.8 78.4 20 1.4 34.5
20:10 1019 30.09 848 25.04 25.7 78.3 26 4.9 40.8
20:15 1019 30.09 848 25.04 25.2 77.4 29 6.2 43.1
20:20 1019 30.09 848 25.04 24.1 75.4 38 9 48.1
20:25 1019 30.09 848 25.04 23.2 73.8 29 4.4 40
20:30 1019 30.09 848 25.04 23.7 74.7 32 6.1 43
20:35 1019 30.09 848 25.04 23.4 74 31 5.6 42.2
20:40 1019 30.09 848 25.04 22.9 73.1 33 5.9 42.7
20:45 1019 30.09 848 25.04 22.5 72.4 38 7.7 45.8
20:50 1019 30.09 848 25.04 22.3 72.1 45 9.8 49.6
20:55 1019 30.09 848 25.04 21.2 70.2 45 9.1 48.5
21:00 1019 30.09 848 25.04 20.5 68.9 44 7.9 46.2
21:05 1019 30.09 848 25.04 20.3 68.5 40 6.3 43.4
21:10 1019 30.09 848 25.04 19.9 67.7 41 6.3 43.3
21:15 1019 30.09 848 25.04 19.8 67.7 35 4 39.2
21:20 1019 30.09 848 25.04 19.9 67.9 35 4.2 39.5
21:25 1019 30.09 848 25.04 19.6 67.3 36 4.3 39.8
21:30 1019 30.09 848 25.04 19.5 67 38 4.7 40.5
21:35 1019 30.09 848 25.04 19.1 66.4 38 4.6 40.2
21:40 1019 30.09 848 25.04 19 66.2 38 4.5 40
21:45 1019 30.09 848 25.04 19 66.2 38 4.6 40.3
21:50 1019 30.09 848 25.04 18.8 65.9 39 4.9 40.8
21:55 1019 30.09 848 25.04 18.9 66 38 4.3 39.7
22:00 1019 30.09 848 25.04 18.8 65.9 37 4 39.2
22:05 1019 30.09 848 25.04 19.1 66.4 43 6.4 43.5
22:10 1019 30.09 848 25.04 18.9 66 39 4.8 40.6
22:15 1019 30.09 848 25.04 18.6 65.5 38 4 39.2
22:20 1019 30.09 848 25.04 18.6 65.4 39 4.5 40
22:25 1019 30.09 848 25.04 18.8 65.8 37 3.9 39
22:30 1019 30.09 848 25.04 18.6 65.4 40 4.8 40.6
22:35 1019 30.09 848 25.04 18.3 64.9 39 4.3 39.8
22:40 1019 30.09 848 25.04 18.1 64.6 40 4.3 39.8
22:45 1019 30.09 848 25.04 18.2 64.7 41 4.7 40.5
22:50 1019 30.09 848 25.04 18.1 64.6 40 4.4 40
22:55 1019 30.09 848 25.04 18 64.3 39 4.1 39.3
23:00 1019 30.09 848 25.04 18.1 64.5 39 4.2 39.5
23:05 1019 30.09 848 25.04 18.1 64.6 39 4 39.2
23:10 1019 30.09 848 25.04 18 64.5 39 4 39.1
23:15 1019 30.09 848 25.04 18 64.3 42 5 41
23:20 1019 30.09 848 25.04 17.8 64.1 40 4 39.2
23:25 1019 30.09 848 25.04 17.7 63.8 40 4.1 39.3
23:30 1019 30.09 848 25.04 17.7 63.9 40 4 39.2
23:35 1019 30.09 848 25.04 18 64.3 39 4 39.2
23:40 1019 30.09 848 25.04 18 64.3 40 4.4 39.9
23:45 1019 30.09 848 25.04 18.1 64.6 38 3.7 38.6
23:50 1019 30.09 848 25.04 19 66.3 35 3.5 38.2
23:55 1019 30.09 848 25.04 19.7 67.5 33 3.3 37.9
24:00 1019 30.09 848 25.04 20.2 68.3 33 3.6 38.4